Latest Weather Observations for Low Rocky Point

IDT60801

Issued at 7:31 am EST Tuesday 26 May 2015 (issued every 30 minutes, with the page automatically refreshed every 10 minutes)

About weather observations | Map of weather stations | Latest weather observations for TAS | Other Formats
Station Details ID: 097080 Name: LOW ROCKY POINT Lat: -42.98 Lon: 145.50 Height: 34.0 m
Data from the previous 72 hours. | See also: Recent months at Low Rocky Point
Date/Time
EST
Temp
°C
App
Temp
°C
Dew
Point
Rel
Hum
%
Delta-T
°C
Wind Press
QNH
hPa
Press
MSL
hPa
Rain
since 9 am
mm
Dir
 
Spd
km/h
Gust
km/h
Spd
kts
Gust
kts
26/07:30am 11.7 9.1 10.6 93 0.6 W 15 17 8 9 1026.9 1026.9 1.6
26/07:00am 11.8 9.2 10.7 93 0.6 W 15 19 8 10 1026.7 1026.7 1.6
26/06:30am 11.9 9.3 10.8 93 0.6 W 15 19 8 10 1026.6 1026.6 1.6
26/06:00am 11.7 8.7 10.8 94 0.5 W 17 20 9 11 1026.5 1026.5 1.6
26/05:30am 11.6 9.0 10.7 94 0.5 W 15 20 8 11 1026.3 1026.3 1.6
26/05:00am 11.7 9.5 10.8 94 0.5 WSW 13 19 7 10 1026.3 1026.3 1.6
26/04:30am 11.9 9.8 11.0 94 0.5 WSW 13 19 7 10 1026.2 1026.2 1.6
26/04:00am 12.2 10.1 11.3 94 0.5 WSW 13 19 7 10 1026.1 1026.1 1.6
26/03:30am 12.2 10.1 11.3 94 0.5 WSW 13 19 7 10 1026.0 1026.0 1.6
26/03:00am 13.0 7.6 12.1 94 0.5 WNW 32 39 17 21 1026.1 1026.1 1.6
26/02:30am 13.1 7.6 12.3 95 0.4 WNW 33 39 18 21 1026.2 1026.2 1.6
26/02:00am 13.0 7.4 12.2 95 0.4 WNW 33 39 18 21 1026.3 1026.3 1.6
26/01:30am 13.0 7.7 12.4 96 0.3 WNW 32 39 17 21 1026.2 1026.2 1.6
26/01:00am 12.9 7.4 12.3 96 0.3 WNW 33 37 18 20 1026.1 1026.1 1.6
26/12:30am 13.1 7.2 12.5 96 0.3 WNW 35 43 19 23 1026.2 1026.2 1.6
26/12:00am 13.1 7.2 12.3 95 0.4 WNW 35 43 19 23 1026.0 1026.0 1.6
 
Date/Time
EST
Temp
°C
App
Temp
°C
Dew
Point
Rel
Hum
%
Delta-T
°C
Wind Press
QNH
hPa
Press
MSL
hPa
Rain
since 9 am
mm
Dir
 
Spd
km/h
Gust
km/h
Spd
kts
Gust
kts
25/11:30pm 13.0 6.3 12.2 95 0.4 WNW 39 46 21 25 1026.0 1026.0 1.6
25/11:00pm 12.9 7.0 12.3 96 0.3 WNW 35 46 19 25 1025.8 1025.8 1.6
25/10:30pm 13.1 6.4 12.3 95 0.4 WNW 39 46 21 25 1026.1 1026.1 1.6
25/10:00pm 13.0 6.3 12.2 95 0.4 WNW 39 46 21 25 1026.1 1026.1 1.6
25/09:30pm 12.9 6.1 12.1 95 0.4 WNW 39 48 21 26 1026.1 1026.1 1.6
25/09:00pm 13.0 6.3 12.4 96 0.3 WNW 39 46 21 25 1025.9 1025.9 1.6
25/08:30pm 13.0 6.3 12.2 95 0.4 WNW 39 46 21 25 1025.9 1025.9 1.6
25/08:00pm 13.0 5.9 12.1 94 0.5 NW 41 48 22 26 1025.8 1025.8 1.6
25/07:30pm 13.4 6.6 12.0 91 0.8 NW 39 44 21 24 1025.7 1025.7 0.0
25/07:00pm 13.3 6.9 11.9 91 0.7 NW 37 44 20 24 1025.7 1025.7 0.0
25/06:30pm 13.3 7.2 11.7 90 0.9 NW 35 44 19 24 1025.6 1025.6 0.0
25/06:00pm 13.5 6.6 11.7 89 1.0 NW 39 50 21 27 1025.7 1025.7 0.0
25/05:30pm 13.4 6.9 11.6 89 1.0 NW 37 46 20 25 1025.4 1025.4 0.0
25/05:00pm 13.3 6.7 11.5 89 1.0 NW 37 46 20 25 1025.3 1025.3 0.0
25/04:30pm 13.3 7.7 11.5 89 1.0 NNW 32 41 17 22 1025.3 1025.3 0.0
25/04:00pm 13.1 7.4 11.2 88 1.0 NNW 32 43 17 23 1025.3 1025.3 0.0
25/03:30pm 13.2 6.9 11.1 87 1.1 NNW 35 44 19 24 1025.4 1025.4 0.0
25/03:00pm 13.2 7.9 11.1 87 1.1 NNW 30 39 16 21 1025.3 1025.3 0.0
25/02:30pm 13.2 8.2 11.1 87 1.1 NNW 28 39 15 21 1025.4 1025.4 0.0
25/02:00pm 13.4 8.1 11.1 86 1.2 NNW 30 39 16 21 1025.7 1025.7 0.0
25/01:30pm 13.7 8.9 11.6 87 1.1 NNW 28 39 15 21 1025.9 1025.9 0.0
25/01:00pm 13.3 7.7 11.4 88 1.0 NNW 32 44 17 24 1026.3 1026.3 0.0
25/12:30pm 13.1 8.2 11.2 88 1.0 NNW 28 39 15 21 1026.6 1026.6 0.0
25/12:00pm 13.7 8.7 12.1 90 0.9 NNW 30 39 16 21 1027.0 1027.0 0.0
25/11:30am 12.8 9.2 11.7 93 0.6 NNW 22 30 12 16 1027.3 1027.3 0.0
25/11:00am 11.6 8.1 10.8 95 0.4 N 20 30 11 16 1027.7 1027.7 0.0
25/10:30am 10.7 7.2 10.1 96 0.3 N 19 24 10 13 1027.8 1027.8 0.0
25/10:00am 10.2 7.0 9.9 98 0.2 NNE 17 24 9 13 1027.9 1027.9 0.0
25/09:30am 9.2 5.4 8.9 98 0.1 NNE 19 24 10 13 1027.9 1027.9 0.0
25/09:00am 8.7 4.5 8.3 97 0.2 N 20 28 11 15 1027.9 1027.9 1.2
25/08:30am 8.4 4.2 8.1 98 0.1 N 20 28 11 15 1027.9 1027.9 1.2
25/08:00am 8.0 3.7 7.7 98 0.1 N 20 26 11 14 1027.8 1027.8 1.2
25/07:30am 8.0 3.7 7.7 98 0.1 N 20 26 11 14 1027.7 1027.7 1.2
25/07:00am 8.0 3.9 7.7 98 0.1 N 19 24 10 13 1027.7 1027.7 1.2
25/06:30am 7.8 3.4 7.5 98 0.1 N 20 26 11 14 1027.7 1027.7 1.2
25/06:00am 7.5 3.1 7.2 98 0.1 N 20 26 11 14 1027.5 1027.5 1.2
25/05:30am 7.8 3.4 7.5 98 0.1 N 20 28 11 15 1027.4 1027.4 1.2
25/05:00am 8.0 3.7 7.7 98 0.1 N 20 24 11 13 1027.5 1027.5 1.2
25/04:30am 8.2 4.1 7.9 98 0.1 N 19 26 10 14 1027.4 1027.4 1.2
25/04:00am 8.3 4.2 8.0 98 0.1 N 19 26 10 14 1027.5 1027.5 1.2
25/03:30am 8.2 4.0 8.1 99 0.0 N 20 30 11 16 1027.5 1027.5 1.2
25/03:00am 8.0 3.3 7.7 98 0.1 N 22 30 12 16 1027.6 1027.6 1.2
25/02:30am 8.1 3.8 7.8 98 0.1 N 20 28 11 15 1028.0 1028.0 1.2
25/02:00am 8.2 3.5 7.9 98 0.1 N 22 28 12 15 1028.0 1028.0 1.2
25/01:30am 8.0 3.9 7.7 98 0.1 N 19 24 10 13 1028.1 1028.1 1.2
25/01:00am 8.1 4.0 7.8 98 0.1 N 19 24 10 13 1028.2 1028.2 1.2
25/12:30am 8.2 3.5 7.9 98 0.1 N 22 30 12 16 1028.2 1028.2 1.2
25/12:00am 8.1 4.7 7.8 98 0.1 N 15 20 8 11 1028.5 1028.5 1.2
 
Date/Time
EST
Temp
°C
App
Temp
°C
Dew
Point
Rel
Hum
%
Delta-T
°C
Wind Press
QNH
hPa
Press
MSL
hPa
Rain
since 9 am
mm
Dir
 
Spd
km/h
Gust
km/h
Spd
kts
Gust
kts
24/11:30pm 8.1 4.4 7.8 98 0.1 N 17 26 9 14 1028.6 1028.6 1.2
24/11:00pm 8.1 5.1 7.7 97 0.2 N 13 17 7 9 1028.7 1028.7 1.2
24/10:30pm 8.1 4.0 7.7 97 0.2 N 19 20 10 11 1028.9 1028.9 1.0
24/10:00pm 8.1 4.3 7.7 97 0.2 NNE 17 20 9 11 1028.9 1028.9 1.0
24/09:30pm 8.1 4.3 7.7 97 0.2 N 17 20 9 11 1028.9 1028.9 0.8
24/09:00pm 8.2 4.8 7.6 96 0.3 N 15 19 8 10 1028.9 1028.9 0.6
24/08:30pm 8.2 4.7 7.4 95 0.4 N 15 19 8 10 1028.7 1028.7 0.4
24/08:00pm 8.1 4.2 7.3 95 0.4 N 17 22 9 12 1028.7 1028.7 0.4
24/07:30pm 8.2 4.3 7.3 94 0.4 N 17 22 9 12 1028.8 1028.8 0.4
24/07:00pm 8.4 4.2 7.3 93 0.5 N 19 22 10 12 1028.9 1028.9 0.2
24/06:30pm 8.6 4.8 7.4 92 0.6 N 17 20 9 11 1028.8 1028.8 0.2
24/06:00pm 8.9 5.1 7.5 91 0.7 N 17 22 9 12 1028.8 1028.8 0.2
24/05:30pm 9.2 5.4 7.5 89 0.8 N 17 26 9 14 1028.5 1028.5 0.0
24/05:00pm 9.9 5.9 8.2 89 0.8 NNW 19 30 10 16 1028.4 1028.4 0.0
24/04:30pm 10.0 5.3 7.9 87 1.0 NW 22 30 12 16 1028.5 1028.5 0.0
24/04:00pm 10.5 5.6 8.6 88 0.9 NW 24 32 13 17 1028.4 1028.4 0.0
24/03:30pm 10.1 7.3 8.4 89 0.8 N 13 19 7 10 1028.4 1028.4 0.0
24/03:00pm 10.4 6.3 8.7 89 0.8 NW 20 28 11 15 1028.3 1028.3 0.0
24/02:30pm 10.3 7.5 8.7 90 0.8 NNW 13 19 7 10 1028.4 1028.4 0.0
24/02:00pm 10.2 7.5 8.8 91 0.7 N 13 15 7 8 1028.6 1028.6 0.0
24/01:30pm 10.2 7.5 9.0 92 0.6 N 13 17 7 9 1028.9 1028.9 0.0
24/01:00pm 9.9 7.1 8.7 92 0.6 N 13 17 7 9 1029.1 1029.1 0.0
24/12:30pm 10.3 7.7 9.4 94 0.4 N 13 17 7 9 1029.2 1029.2 0.0
24/12:00pm 10.0 7.4 9.4 96 0.3 N 13 17 7 9 1029.4 1029.4 0.0
24/11:30am 9.9 7.3 9.4 97 0.2 N 13 15 7 8 1029.6 1029.6 0.0
24/11:00am 9.4 6.4 9.1 98 0.1 NNE 15 19 8 10 1030.0 1030.0 0.0
24/10:30am 8.9 5.7 8.6 98 0.1 NNE 15 20 8 11 1030.1 1030.1 0.0
24/10:00am 8.7 5.5 8.6 99 0.0 N 15 19 8 10 1030.2 1030.2 0.0
24/09:30am 8.0 3.9 7.7 98 0.1 N 19 24 10 13 1030.3 1030.3 0.0
24/09:00am 8.0 5.0 7.7 98 0.1 NNE 13 17 7 9 1030.3 1030.3 0.6
24/08:30am 7.9 4.5 7.6 98 0.1 NNE 15 17 8 9 1030.3 1030.3 0.6
24/08:00am 7.8 4.7 7.4 97 0.2 N 13 15 7 8 1030.2 1030.2 0.6
24/07:30am 8.5 5.6 8.1 97 0.2 WNW 13 19 7 10 1030.1 1030.1 0.6
24/07:00am 7.8 5.1 7.4 97 0.2 N 11 15 6 8 1030.0 1030.0 0.6
24/06:30am 7.7 4.2 7.3 97 0.2 N 15 20 8 11 1029.9 1029.9 0.6
24/06:00am 8.0 4.2 7.4 96 0.3 N 17 22 9 12 1029.7 1029.7 0.4
24/05:30am 8.3 4.9 7.7 96 0.3 NNW 15 26 8 14 1029.7 1029.7 0.4
24/05:00am 8.6 4.9 8.0 96 0.3 WNW 17 24 9 13 1029.4 1029.4 0.4
24/04:30am 8.0 4.9 7.2 95 0.4 N 13 17 7 9 1029.3 1029.3 0.2
24/04:00am 8.0 4.8 6.9 93 0.5 N 13 17 7 9 1029.2 1029.2 0.2
24/03:30am 8.3 5.5 6.9 91 0.7 NNW 11 22 6 12 1029.3 1029.3 0.2
24/03:00am 9.0 5.2 7.5 90 0.7 WNW 17 22 9 12 1029.3 1029.3 0.2
24/02:30am 8.8 5.6 6.8 87 0.9 N 13 19 7 10 1029.5 1029.5 0.0
24/02:00am 9.4 5.1 7.0 85 1.1 WNW 19 22 10 12 1029.6 1029.6 0.0
24/01:30am 9.1 5.0 6.4 83 1.2 WNW 17 19 9 10 1029.6 1029.6 0.0
24/01:00am 9.4 5.4 6.7 83 1.3 NNW 17 24 9 13 1029.7 1029.7 0.0
24/12:30am 9.6 5.5 6.3 80 1.5 W 17 20 9 11 1029.8 1029.8 0.0
24/12:00am 9.8 5.7 6.2 78 1.7 W 17 24 9 13 1030.0 1030.0 0.0
 
Date/Time
EST
Temp
°C
App
Temp
°C
Dew
Point
Rel
Hum
%
Delta-T
°C
Wind Press
QNH
hPa
Press
MSL
hPa
Rain
since 9 am
mm
Dir
 
Spd
km/h
Gust
km/h
Spd
kts
Gust
kts
23/11:30pm 10.4 6.6 6.0 74 2.0 W 15 20 8 11 1029.9 1029.9 0.0
23/11:00pm 10.1 6.2 5.5 73 2.1 WNW 15 20 8 11 1029.9 1029.9 0.0
23/10:30pm 10.6 5.5 6.2 74 2.1 WNW 22 30 12 16 1030.1 1030.1 0.0
23/10:00pm 10.4 5.8 5.8 73 2.1 WSW 19 24 10 13 1030.2 1030.2 0.0
23/09:30pm 10.5 7.0 5.5 71 2.3 WNW 13 19 7 10 1030.3 1030.3 0.0
23/09:00pm 10.5 6.3 5.5 71 2.3 W 17 22 9 12 1030.4 1030.4 0.0
23/08:30pm 10.7 6.0 5.9 72 2.2 W 20 26 11 14 1030.3 1030.3 0.0
23/08:00pm 10.6 6.8 5.8 72 2.2 WNW 15 19 8 10 1030.3 1030.3 0.0
23/07:30pm 10.5 6.7 5.7 72 2.2 W 15 20 8 11 1030.3 1030.3 0.0
23/07:00pm 10.3 5.6 5.3 71 2.3 WSW 19 26 10 14 1030.5 1030.5 0.0
23/06:30pm 10.2 5.6 5.6 73 2.1 W 19 26 10 14 1030.5 1030.5 0.0
23/06:00pm 10.4 4.2 6.0 74 2.0 W 28 33 15 18 1030.2 1030.2 0.0
23/05:30pm 10.6 5.2 6.4 75 2.0 W 24 32 13 17 1030.1 1030.1 0.0
23/05:00pm 10.5 6.7 5.9 73 2.1 WNW 15 22 8 12 1030.1 1030.1 0.0
23/04:30pm 10.5 6.7 5.7 72 2.2 W 15 20 8 11 1030.2 1030.2 0.0
23/04:00pm 10.6 5.1 6.0 73 2.1 W 24 28 13 15 1030.2 1030.2 0.0
23/03:30pm 10.7 5.7 6.5 75 2.0 W 22 30 12 16 1030.1 1030.1 0.0
23/03:00pm 10.9 6.3 6.6 75 2.0 W 20 26 11 14 1030.0 1030.0 0.0
23/02:30pm 10.6 4.8 6.4 75 2.0 W 26 32 14 17 1030.0 1030.0 0.0
23/02:00pm 10.7 6.1 6.3 74 2.0 W 20 28 11 15 1030.2 1030.2 0.0
23/01:30pm 10.5 3.9 6.1 74 2.0 W 30 37 16 20 1030.4 1030.4 0.0
23/01:00pm 11.5 6.1 6.4 71 2.4 W 24 30 13 16 1030.2 1030.2 0.0
23/12:30pm 11.1 4.9 6.3 72 2.3 W 28 35 15 19 1030.2 1030.2 0.0
23/12:00pm 11.3 5.5 6.2 71 2.4 WNW 26 32 14 17 1030.4 1030.4 0.0
23/11:30am 11.4 5.6 6.1 70 2.5 W 26 30 14 16 1030.8 1030.8 0.0
23/11:00am 11.3 5.1 6.2 71 2.4 W 28 35 15 19 1030.9 1030.9 0.0
23/10:30am 11.2 4.9 5.9 70 2.5 W 28 33 15 18 1030.9 1030.9 0.0
23/10:00am 11.1 4.6 6.5 73 2.1 W 30 35 16 19 1030.9 1030.9 0.0
23/09:30am 10.7 4.9 6.3 74 2.1 W 26 33 14 18 1030.8 1030.8 0.0
23/09:00am 10.7 4.6 6.5 75 2.0 W 28 35 15 19 1030.8 1030.8 0.4
23/08:30am 10.6 4.3 5.8 72 2.2 W 28 33 15 18 1030.8 1030.8 0.4
23/08:00am 10.6 3.6 6.0 73 2.1 W 32 39 17 21 1030.6 1030.6 0.4

Other Formats:

Comma delimited format used in spreadsheet applications
http://www.bom.gov.au/fwo/IDT60801/IDT60801.95961.axf

JavaScript Object Notation format (JSON) in row-major order
http://www.bom.gov.au/fwo/IDT60801/IDT60801.95961.json